Pagrindinis puslapis
METAR-TAF:

METAR-TAF

Oro uostai :

Bagdadas, Irakas

platuma: 33-15-45N, ilguma: 44-14-04E, Aukštis: 35 m

Dabartinis oras

Ataskaita buvo paskelbta 1 valandą ir 29 minutes, ne 03:00 UTC
Vėjas 1 kt nuo kintamojo kryptimis
Temperatūra 14°C
Drėgmė 55%
Slėgis 1016 hPa
Matomumas: 5000 m
rūkana

METAR: ORBI 300300Z VRB01KT 5000 BR NSC 14/05 Q1016 NOSIG

Laikas: 07:29 (04:29 UTC)

Prognozė

Ataskaita buvo paskelbta 6 valandos ir 29 minutes, ne 22:00 UTC
Prognozė galioja nuo 30 metu 00 UTC su 30 metu 24 UTC
Vėjas 10 kt iš Vakarų
Matomumas: 8000 m

TAF: ORBI 292200Z 3000/3024 28010KT 8000 NSC

Orai ataskaitas ir orų prognozės (METAR, TAF).

turimą stotys yra geltonos ir raudonos taškus žemėlapyje.

Perkelti pele per norėdami pamatyti stoties vardą.

Tada spustelėkite, norėdami matyti oro stebėjimo ir prognozės.

Norėdami pakeisti žemėlapį: spustelėkite ant žalios mygtukų su juodo kryžiaus žemyn,; žalią mygtuką su brūkšneliu, jei norite nutolinti; arba žalių rodyklių gretimoms žemėlapius.


METAR-TAF: